sensor_id;sensor_type;location;lat;lon;timestamp;P1;durP1;ratioP1;P2;durP2;ratioP2
18072;SDS011;9161;47.348;9.648;2022-12-17T00:05:08;65.53;;;26.43;;
18072;SDS011;9161;47.348;9.648;2022-12-17T00:10:09;67.47;;;27.10;;
18072;SDS011;9161;47.348;9.648;2022-12-17T00:15:12;65.43;;;26.80;;
18072;SDS011;9161;47.348;9.648;2022-12-17T00:20:26;69.07;;;26.87;;
18072;SDS011;9161;47.348;9.648;2022-12-17T00:25:27;66.83;;;26.30;;
18072;SDS011;9161;47.348;9.648;2022-12-17T00:30:41;63.03;;;26.43;;
18072;SDS011;9161;47.348;9.648;2022-12-17T00:35:42;65.37;;;26.90;;
18072;SDS011;9161;47.348;9.648;2022-12-17T00:40:58;70.47;;;25.60;;
18072;SDS011;9161;47.348;9.648;2022-12-17T00:46:01;66.03;;;26.13;;
18072;SDS011;9161;47.348;9.648;2022-12-17T00:51:02;58.87;;;25.40;;
18072;SDS011;9161;47.348;9.648;2022-12-17T00:56:03;63.87;;;25.73;;
18072;SDS011;9161;47.348;9.648;2022-12-17T01:01:06;64.20;;;26.03;;
18072;SDS011;9161;47.348;9.648;2022-12-17T01:06:08;65.23;;;26.83;;
18072;SDS011;9161;47.348;9.648;2022-12-17T01:11:09;69.70;;;27.13;;
18072;SDS011;9161;47.348;9.648;2022-12-17T01:16:12;64.80;;;25.23;;
18072;SDS011;9161;47.348;9.648;2022-12-17T01:21:13;63.37;;;24.53;;
18072;SDS011;9161;47.348;9.648;2022-12-17T01:26:14;58.87;;;24.40;;
18072;SDS011;9161;47.348;9.648;2022-12-17T01:31:17;63.60;;;25.77;;
18072;SDS011;9161;47.348;9.648;2022-12-17T01:36:18;70.13;;;25.93;;
18072;SDS011;9161;47.348;9.648;2022-12-17T01:41:19;64.33;;;24.73;;
18072;SDS011;9161;47.348;9.648;2022-12-17T01:46:22;64.77;;;24.00;;
18072;SDS011;9161;47.348;9.648;2022-12-17T01:51:24;58.03;;;23.80;;
18072;SDS011;9161;47.348;9.648;2022-12-17T01:56:26;57.33;;;24.33;;
18072;SDS011;9161;47.348;9.648;2022-12-17T02:01:29;63.13;;;25.17;;
18072;SDS011;9161;47.348;9.648;2022-12-17T02:06:30;55.20;;;24.37;;
18072;SDS011;9161;47.348;9.648;2022-12-17T02:11:38;59.60;;;24.10;;
18072;SDS011;9161;47.348;9.648;2022-12-17T02:16:47;63.03;;;23.87;;
18072;SDS011;9161;47.348;9.648;2022-12-17T02:21:53;57.33;;;24.00;;
18072;SDS011;9161;47.348;9.648;2022-12-17T02:27:00;57.47;;;22.80;;
18072;SDS011;9161;47.348;9.648;2022-12-17T02:32:03;57.03;;;23.73;;
18072;SDS011;9161;47.348;9.648;2022-12-17T02:37:06;58.83;;;23.23;;
18072;SDS011;9161;47.348;9.648;2022-12-17T02:42:08;60.63;;;24.47;;
18072;SDS011;9161;47.348;9.648;2022-12-17T02:47:09;59.57;;;25.23;;
18072;SDS011;9161;47.348;9.648;2022-12-17T02:52:12;60.80;;;23.67;;
18072;SDS011;9161;47.348;9.648;2022-12-17T02:57:18;64.23;;;24.63;;
18072;SDS011;9161;47.348;9.648;2022-12-17T03:02:24;64.30;;;25.20;;
18072;SDS011;9161;47.348;9.648;2022-12-17T03:07:25;63.90;;;23.70;;
18072;SDS011;9161;47.348;9.648;2022-12-17T03:12:28;59.90;;;25.20;;
18072;SDS011;9161;47.348;9.648;2022-12-17T03:17:29;64.87;;;24.60;;
18072;SDS011;9161;47.348;9.648;2022-12-17T03:22:31;62.40;;;23.50;;
18072;SDS011;9161;47.348;9.648;2022-12-17T03:27:33;66.60;;;24.77;;
18072;SDS011;9161;47.348;9.648;2022-12-17T03:32:34;61.20;;;23.90;;
18072;SDS011;9161;47.348;9.648;2022-12-17T03:37:35;59.17;;;24.17;;
18072;SDS011;9161;47.348;9.648;2022-12-17T03:42:37;63.23;;;25.27;;
18072;SDS011;9161;47.348;9.648;2022-12-17T03:47:38;63.63;;;25.30;;
18072;SDS011;9161;47.348;9.648;2022-12-17T03:52:39;60.30;;;24.27;;
18072;SDS011;9161;47.348;9.648;2022-12-17T03:57:41;69.03;;;26.70;;
18072;SDS011;9161;47.348;9.648;2022-12-17T04:02:42;67.50;;;26.07;;
18072;SDS011;9161;47.348;9.648;2022-12-17T04:07:43;64.40;;;26.57;;
18072;SDS011;9161;47.348;9.648;2022-12-17T04:12:45;70.20;;;27.90;;
18072;SDS011;9161;47.348;9.648;2022-12-17T04:17:46;66.80;;;27.37;;
18072;SDS011;9161;47.348;9.648;2022-12-17T04:22:47;67.97;;;26.03;;
18072;SDS011;9161;47.348;9.648;2022-12-17T04:27:49;66.43;;;26.33;;
18072;SDS011;9161;47.348;9.648;2022-12-17T04:32:50;65.03;;;25.07;;
18072;SDS011;9161;47.348;9.648;2022-12-17T04:37:50;64.77;;;25.20;;
18072;SDS011;9161;47.348;9.648;2022-12-17T04:43:03;63.93;;;25.63;;
18072;SDS011;9161;47.348;9.648;2022-12-17T04:48:07;63.53;;;25.60;;
18072;SDS011;9161;47.348;9.648;2022-12-17T04:53:08;66.23;;;25.93;;
18072;SDS011;9161;47.348;9.648;2022-12-17T04:58:11;61.77;;;26.73;;
18072;SDS011;9161;47.348;9.648;2022-12-17T05:03:15;61.73;;;25.17;;
18072;SDS011;9161;47.348;9.648;2022-12-17T05:08:16;64.30;;;26.13;;
18072;SDS011;9161;47.348;9.648;2022-12-17T05:13:23;66.10;;;26.53;;
18072;SDS011;9161;47.348;9.648;2022-12-17T05:18:24;61.70;;;25.37;;
18072;SDS011;9161;47.348;9.648;2022-12-17T05:23:25;65.97;;;25.30;;
18072;SDS011;9161;47.348;9.648;2022-12-17T05:28:27;62.73;;;24.93;;
18072;SDS011;9161;47.348;9.648;2022-12-17T05:33:29;59.53;;;25.17;;
18072;SDS011;9161;47.348;9.648;2022-12-17T05:38:30;65.37;;;27.23;;
18072;SDS011;9161;47.348;9.648;2022-12-17T05:43:32;66.67;;;25.53;;
18072;SDS011;9161;47.348;9.648;2022-12-17T05:48:34;58.60;;;24.93;;
18072;SDS011;9161;47.348;9.648;2022-12-17T05:53:35;55.63;;;24.70;;
18072;SDS011;9161;47.348;9.648;2022-12-17T05:58:38;60.70;;;24.90;;
18072;SDS011;9161;47.348;9.648;2022-12-17T06:03:39;56.77;;;24.80;;
18072;SDS011;9161;47.348;9.648;2022-12-17T06:08:41;64.80;;;26.23;;
18072;SDS011;9161;47.348;9.648;2022-12-17T06:13:43;62.47;;;26.30;;
18072;SDS011;9161;47.348;9.648;2022-12-17T06:18:46;59.17;;;25.20;;
18072;SDS011;9161;47.348;9.648;2022-12-17T06:23:46;59.50;;;25.83;;
18072;SDS011;9161;47.348;9.648;2022-12-17T06:28:49;57.87;;;25.80;;
18072;SDS011;9161;47.348;9.648;2022-12-17T06:33:50;57.00;;;24.37;;
18072;SDS011;9161;47.348;9.648;2022-12-17T06:38:51;57.57;;;25.77;;
18072;SDS011;9161;47.348;9.648;2022-12-17T06:43:56;61.07;;;24.90;;
18072;SDS011;9161;47.348;9.648;2022-12-17T06:48:57;57.73;;;25.97;;
18072;SDS011;9161;47.348;9.648;2022-12-17T06:54:06;51.70;;;25.00;;
18072;SDS011;9161;47.348;9.648;2022-12-17T06:59:08;56.63;;;25.90;;
18072;SDS011;9161;47.348;9.648;2022-12-17T07:04:10;56.43;;;25.20;;
18072;SDS011;9161;47.348;9.648;2022-12-17T07:09:11;56.00;;;24.53;;
18072;SDS011;9161;47.348;9.648;2022-12-17T07:14:15;55.73;;;24.23;;
18072;SDS011;9161;47.348;9.648;2022-12-17T07:19:16;56.93;;;23.93;;
18072;SDS011;9161;47.348;9.648;2022-12-17T07:24:18;57.00;;;25.00;;
18072;SDS011;9161;47.348;9.648;2022-12-17T07:29:22;53.77;;;23.70;;
18072;SDS011;9161;47.348;9.648;2022-12-17T07:34:23;50.27;;;21.90;;
18072;SDS011;9161;47.348;9.648;2022-12-17T07:39:25;56.17;;;23.90;;
18072;SDS011;9161;47.348;9.648;2022-12-17T07:44:28;56.23;;;23.03;;
18072;SDS011;9161;47.348;9.648;2022-12-17T07:49:29;61.37;;;24.63;;
18072;SDS011;9161;47.348;9.648;2022-12-17T07:54:30;52.43;;;24.47;;
18072;SDS011;9161;47.348;9.648;2022-12-17T07:59:32;54.53;;;24.67;;
18072;SDS011;9161;47.348;9.648;2022-12-17T08:04:33;59.17;;;25.00;;
18072;SDS011;9161;47.348;9.648;2022-12-17T08:09:34;50.77;;;22.33;;
18072;SDS011;9161;47.348;9.648;2022-12-17T08:14:37;59.93;;;25.13;;
18072;SDS011;9161;47.348;9.648;2022-12-17T08:19:38;57.03;;;26.00;;
18072;SDS011;9161;47.348;9.648;2022-12-17T08:24:39;63.97;;;26.27;;
18072;SDS011;9161;47.348;9.648;2022-12-17T08:29:41;58.83;;;24.37;;
18072;SDS011;9161;47.348;9.648;2022-12-17T08:34:42;62.00;;;25.90;;
18072;SDS011;9161;47.348;9.648;2022-12-17T08:39:43;58.30;;;23.43;;
18072;SDS011;9161;47.348;9.648;2022-12-17T08:44:45;56.77;;;24.43;;
18072;SDS011;9161;47.348;9.648;2022-12-17T08:49:46;55.10;;;23.67;;
18072;SDS011;9161;47.348;9.648;2022-12-17T08:54:47;55.73;;;24.73;;
18072;SDS011;9161;47.348;9.648;2022-12-17T08:59:49;64.67;;;28.20;;
18072;SDS011;9161;47.348;9.648;2022-12-17T09:04:50;51.50;;;22.83;;
18072;SDS011;9161;47.348;9.648;2022-12-17T09:09:51;48.73;;;21.83;;
18072;SDS011;9161;47.348;9.648;2022-12-17T09:14:53;47.20;;;21.17;;
18072;SDS011;9161;47.348;9.648;2022-12-17T09:19:54;45.57;;;21.17;;
18072;SDS011;9161;47.348;9.648;2022-12-17T09:24:55;51.67;;;21.73;;
18072;SDS011;9161;47.348;9.648;2022-12-17T09:29:58;51.73;;;22.07;;
18072;SDS011;9161;47.348;9.648;2022-12-17T09:34:59;46.63;;;21.70;;
18072;SDS011;9161;47.348;9.648;2022-12-17T09:40:00;52.13;;;22.10;;
18072;SDS011;9161;47.348;9.648;2022-12-17T09:45:03;50.80;;;20.87;;
18072;SDS011;9161;47.348;9.648;2022-12-17T09:50:07;46.57;;;20.77;;
18072;SDS011;9161;47.348;9.648;2022-12-17T09:55:14;47.07;;;20.43;;
18072;SDS011;9161;47.348;9.648;2022-12-17T10:00:19;44.20;;;20.33;;
18072;SDS011;9161;47.348;9.648;2022-12-17T10:05:23;41.53;;;19.80;;
18072;SDS011;9161;47.348;9.648;2022-12-17T10:10:26;46.23;;;20.97;;
18072;SDS011;9161;47.348;9.648;2022-12-17T10:15:32;41.30;;;19.03;;
18072;SDS011;9161;47.348;9.648;2022-12-17T10:20:35;40.10;;;19.07;;
18072;SDS011;9161;47.348;9.648;2022-12-17T10:25:38;45.47;;;21.60;;
18072;SDS011;9161;47.348;9.648;2022-12-17T10:30:51;45.70;;;20.30;;
18072;SDS011;9161;47.348;9.648;2022-12-17T10:35:53;46.20;;;21.40;;
18072;SDS011;9161;47.348;9.648;2022-12-17T10:40:55;44.60;;;20.07;;
18072;SDS011;9161;47.348;9.648;2022-12-17T10:46:07;45.23;;;21.37;;
18072;SDS011;9161;47.348;9.648;2022-12-17T10:51:18;43.23;;;20.27;;
18072;SDS011;9161;47.348;9.648;2022-12-17T10:56:25;42.70;;;21.17;;
18072;SDS011;9161;47.348;9.648;2022-12-17T11:01:28;42.20;;;20.20;;
18072;SDS011;9161;47.348;9.648;2022-12-17T11:06:31;42.43;;;20.07;;
18072;SDS011;9161;47.348;9.648;2022-12-17T11:11:34;41.47;;;20.20;;
18072;SDS011;9161;47.348;9.648;2022-12-17T11:16:39;42.37;;;20.33;;
18072;SDS011;9161;47.348;9.648;2022-12-17T11:21:44;40.67;;;19.10;;
18072;SDS011;9161;47.348;9.648;2022-12-17T11:26:50;41.07;;;20.20;;
18072;SDS011;9161;47.348;9.648;2022-12-17T11:32:01;40.47;;;19.90;;
18072;SDS011;9161;47.348;9.648;2022-12-17T11:37:29;47.13;;;21.83;;
18072;SDS011;9161;47.348;9.648;2022-12-17T11:42:38;44.67;;;20.27;;
18072;SDS011;9161;47.348;9.648;2022-12-17T11:47:45;41.40;;;20.50;;
18072;SDS011;9161;47.348;9.648;2022-12-17T11:53:04;43.63;;;21.00;;
18072;SDS011;9161;47.348;9.648;2022-12-17T11:58:14;45.10;;;21.33;;
18072;SDS011;9161;47.348;9.648;2022-12-17T12:03:23;43.33;;;20.53;;
18072;SDS011;9161;47.348;9.648;2022-12-17T12:08:32;46.57;;;21.87;;
18072;SDS011;9161;47.348;9.648;2022-12-17T12:13:36;45.20;;;20.77;;
18072;SDS011;9161;47.348;9.648;2022-12-17T12:18:49;48.67;;;21.93;;
18072;SDS011;9161;47.348;9.648;2022-12-17T12:24:00;45.00;;;20.33;;
18072;SDS011;9161;47.348;9.648;2022-12-17T12:29:11;42.00;;;20.83;;
18072;SDS011;9161;47.348;9.648;2022-12-17T12:34:30;47.43;;;21.17;;
18072;SDS011;9161;47.348;9.648;2022-12-17T12:39:36;43.27;;;20.60;;
18072;SDS011;9161;47.348;9.648;2022-12-17T12:44:43;43.17;;;19.60;;
18072;SDS011;9161;47.348;9.648;2022-12-17T12:49:51;48.17;;;20.70;;
18072;SDS011;9161;47.348;9.648;2022-12-17T12:54:56;42.00;;;19.07;;
18072;SDS011;9161;47.348;9.648;2022-12-17T12:59:58;45.97;;;20.63;;
18072;SDS011;9161;47.348;9.648;2022-12-17T13:05:01;43.63;;;20.43;;
18072;SDS011;9161;47.348;9.648;2022-12-17T13:10:15;41.43;;;20.30;;
18072;SDS011;9161;47.348;9.648;2022-12-17T13:15:08;44.80;;;20.80;;
18072;SDS011;9161;47.348;9.648;2022-12-17T13:20:19;43.43;;;19.00;;
18072;SDS011;9161;47.348;9.648;2022-12-17T13:25:14;42.90;;;19.07;;
18072;SDS011;9161;47.348;9.648;2022-12-17T13:30:10;43.13;;;19.97;;
18072;SDS011;9161;47.348;9.648;2022-12-17T13:35:15;41.67;;;19.17;;
18072;SDS011;9161;47.348;9.648;2022-12-17T13:40:12;44.03;;;20.50;;
18072;SDS011;9161;47.348;9.648;2022-12-17T13:45:05;44.07;;;21.10;;
18072;SDS011;9161;47.348;9.648;2022-12-17T13:49:50;41.40;;;20.40;;
18072;SDS011;9161;47.348;9.648;2022-12-17T13:55:06;40.93;;;19.80;;
18072;SDS011;9161;47.348;9.648;2022-12-17T13:59:55;45.77;;;21.33;;
18072;SDS011;9161;47.348;9.648;2022-12-17T14:04:40;42.30;;;21.30;;
18072;SDS011;9161;47.348;9.648;2022-12-17T14:09:26;40.70;;;19.40;;
18072;SDS011;9161;47.348;9.648;2022-12-17T14:14:18;48.93;;;21.47;;
18072;SDS011;9161;47.348;9.648;2022-12-17T14:19:08;46.67;;;21.63;;
18072;SDS011;9161;47.348;9.648;2022-12-17T14:23:55;42.67;;;20.60;;
18072;SDS011;9161;47.348;9.648;2022-12-17T14:28:43;49.83;;;20.27;;
18072;SDS011;9161;47.348;9.648;2022-12-17T14:33:33;55.50;;;26.07;;
18072;SDS011;9161;47.348;9.648;2022-12-17T14:38:18;93.67;;;38.77;;
18072;SDS011;9161;47.348;9.648;2022-12-17T14:43:19;56.97;;;24.10;;
18072;SDS011;9161;47.348;9.648;2022-12-17T14:48:12;51.27;;;22.20;;
18072;SDS011;9161;47.348;9.648;2022-12-17T14:52:59;50.03;;;22.47;;
18072;SDS011;9161;47.348;9.648;2022-12-17T14:57:43;61.43;;;25.97;;
18072;SDS011;9161;47.348;9.648;2022-12-17T15:02:27;45.93;;;20.37;;
18072;SDS011;9161;47.348;9.648;2022-12-17T15:07:16;51.70;;;21.57;;
18072;SDS011;9161;47.348;9.648;2022-12-17T15:12:06;50.73;;;21.30;;
18072;SDS011;9161;47.348;9.648;2022-12-17T15:16:51;50.60;;;21.63;;
18072;SDS011;9161;47.348;9.648;2022-12-17T15:21:36;57.10;;;21.97;;
18072;SDS011;9161;47.348;9.648;2022-12-17T15:26:22;52.67;;;21.67;;
18072;SDS011;9161;47.348;9.648;2022-12-17T15:31:08;82.97;;;31.40;;
18072;SDS011;9161;47.348;9.648;2022-12-17T15:35:54;68.40;;;29.60;;
18072;SDS011;9161;47.348;9.648;2022-12-17T15:40:39;51.73;;;22.87;;
18072;SDS011;9161;47.348;9.648;2022-12-17T15:45:23;53.03;;;23.00;;
18072;SDS011;9161;47.348;9.648;2022-12-17T15:50:09;54.57;;;23.10;;
18072;SDS011;9161;47.348;9.648;2022-12-17T15:54:54;62.17;;;24.57;;
18072;SDS011;9161;47.348;9.648;2022-12-17T15:59:38;53.43;;;22.43;;
18072;SDS011;9161;47.348;9.648;2022-12-17T16:04:22;55.90;;;24.33;;
18072;SDS011;9161;47.348;9.648;2022-12-17T16:09:08;55.73;;;23.70;;
18072;SDS011;9161;47.348;9.648;2022-12-17T16:13:52;54.27;;;24.17;;
18072;SDS011;9161;47.348;9.648;2022-12-17T16:18:36;58.07;;;25.23;;
18072;SDS011;9161;47.348;9.648;2022-12-17T16:23:21;55.73;;;22.50;;
18072;SDS011;9161;47.348;9.648;2022-12-17T16:28:07;52.80;;;21.87;;
18072;SDS011;9161;47.348;9.648;2022-12-17T16:32:51;54.33;;;23.90;;
18072;SDS011;9161;47.348;9.648;2022-12-17T16:37:34;48.10;;;20.83;;
18072;SDS011;9161;47.348;9.648;2022-12-17T16:42:18;50.37;;;22.37;;
18072;SDS011;9161;47.348;9.648;2022-12-17T16:47:05;48.40;;;20.80;;
18072;SDS011;9161;47.348;9.648;2022-12-17T16:51:50;50.03;;;21.70;;
18072;SDS011;9161;47.348;9.648;2022-12-17T16:56:35;55.17;;;22.37;;
18072;SDS011;9161;47.348;9.648;2022-12-17T17:01:22;57.17;;;24.27;;
18072;SDS011;9161;47.348;9.648;2022-12-17T17:06:10;52.97;;;23.03;;
18072;SDS011;9161;47.348;9.648;2022-12-17T17:10:54;53.40;;;23.30;;
18072;SDS011;9161;47.348;9.648;2022-12-17T17:15:38;49.87;;;22.03;;
18072;SDS011;9161;47.348;9.648;2022-12-17T17:20:22;54.27;;;23.33;;
18072;SDS011;9161;47.348;9.648;2022-12-17T17:25:07;53.43;;;23.10;;
18072;SDS011;9161;47.348;9.648;2022-12-17T17:29:51;55.87;;;23.07;;
18072;SDS011;9161;47.348;9.648;2022-12-17T17:34:41;51.57;;;23.13;;
18072;SDS011;9161;47.348;9.648;2022-12-17T17:39:25;60.83;;;24.57;;
18072;SDS011;9161;47.348;9.648;2022-12-17T17:44:11;55.17;;;24.50;;
18072;SDS011;9161;47.348;9.648;2022-12-17T17:48:56;61.97;;;25.07;;
18072;SDS011;9161;47.348;9.648;2022-12-17T17:53:41;64.17;;;25.10;;
18072;SDS011;9161;47.348;9.648;2022-12-17T17:58:25;52.17;;;23.53;;
18072;SDS011;9161;47.348;9.648;2022-12-17T18:03:10;63.13;;;25.90;;
18072;SDS011;9161;47.348;9.648;2022-12-17T18:07:54;61.80;;;24.83;;
18072;SDS011;9161;47.348;9.648;2022-12-17T18:12:38;58.30;;;24.20;;
18072;SDS011;9161;47.348;9.648;2022-12-17T18:17:56;60.63;;;26.07;;
18072;SDS011;9161;47.348;9.648;2022-12-17T18:22:45;68.30;;;26.53;;
18072;SDS011;9161;47.348;9.648;2022-12-17T18:27:31;64.70;;;25.20;;
18072;SDS011;9161;47.348;9.648;2022-12-17T18:32:15;66.63;;;24.60;;
18072;SDS011;9161;47.348;9.648;2022-12-17T18:36:58;71.13;;;26.47;;
18072;SDS011;9161;47.348;9.648;2022-12-17T18:41:44;77.00;;;30.13;;
18072;SDS011;9161;47.348;9.648;2022-12-17T18:47:00;71.87;;;26.47;;
18072;SDS011;9161;47.348;9.648;2022-12-17T18:51:45;72.97;;;27.47;;
18072;SDS011;9161;47.348;9.648;2022-12-17T18:56:32;79.10;;;28.97;;
18072;SDS011;9161;47.348;9.648;2022-12-17T19:01:39;76.67;;;29.53;;
18072;SDS011;9161;47.348;9.648;2022-12-17T19:06:24;78.20;;;29.50;;
18072;SDS011;9161;47.348;9.648;2022-12-17T19:11:08;80.47;;;28.10;;
18072;SDS011;9161;47.348;9.648;2022-12-17T19:15:54;66.03;;;26.63;;
18072;SDS011;9161;47.348;9.648;2022-12-17T19:20:39;71.40;;;28.57;;
18072;SDS011;9161;47.348;9.648;2022-12-17T19:25:23;72.87;;;27.53;;
18072;SDS011;9161;47.348;9.648;2022-12-17T19:30:08;69.47;;;27.40;;
18072;SDS011;9161;47.348;9.648;2022-12-17T19:34:53;66.07;;;25.50;;
18072;SDS011;9161;47.348;9.648;2022-12-17T19:39:38;68.20;;;26.70;;
18072;SDS011;9161;47.348;9.648;2022-12-17T19:44:23;74.63;;;28.43;;
18072;SDS011;9161;47.348;9.648;2022-12-17T19:49:09;75.23;;;28.10;;
18072;SDS011;9161;47.348;9.648;2022-12-17T19:53:56;61.67;;;25.83;;
18072;SDS011;9161;47.348;9.648;2022-12-17T19:58:57;72.87;;;26.47;;
18072;SDS011;9161;47.348;9.648;2022-12-17T20:03:43;62.20;;;25.53;;
18072;SDS011;9161;47.348;9.648;2022-12-17T20:08:28;63.57;;;25.30;;
18072;SDS011;9161;47.348;9.648;2022-12-17T20:13:13;72.73;;;26.73;;
18072;SDS011;9161;47.348;9.648;2022-12-17T20:17:58;68.73;;;25.77;;
18072;SDS011;9161;47.348;9.648;2022-12-17T20:22:43;71.70;;;27.67;;
18072;SDS011;9161;47.348;9.648;2022-12-17T20:27:28;67.13;;;26.17;;
18072;SDS011;9161;47.348;9.648;2022-12-17T20:32:12;78.33;;;29.77;;
18072;SDS011;9161;47.348;9.648;2022-12-17T20:37:01;69.70;;;25.27;;
18072;SDS011;9161;47.348;9.648;2022-12-17T20:41:45;58.17;;;22.63;;
18072;SDS011;9161;47.348;9.648;2022-12-17T20:46:32;74.77;;;27.97;;
18072;SDS011;9161;47.348;9.648;2022-12-17T20:51:19;68.83;;;25.40;;
18072;SDS011;9161;47.348;9.648;2022-12-17T20:56:08;74.03;;;28.87;;
18072;SDS011;9161;47.348;9.648;2022-12-17T21:01:00;72.43;;;28.27;;
18072;SDS011;9161;47.348;9.648;2022-12-17T21:05:46;72.47;;;27.87;;
18072;SDS011;9161;47.348;9.648;2022-12-17T21:10:30;68.30;;;27.33;;
18072;SDS011;9161;47.348;9.648;2022-12-17T21:15:17;78.23;;;27.17;;
18072;SDS011;9161;47.348;9.648;2022-12-17T21:20:02;71.37;;;27.93;;
18072;SDS011;9161;47.348;9.648;2022-12-17T21:24:51;76.27;;;29.90;;
18072;SDS011;9161;47.348;9.648;2022-12-17T21:29:36;83.00;;;30.77;;
18072;SDS011;9161;47.348;9.648;2022-12-17T21:34:22;84.37;;;30.97;;
18072;SDS011;9161;47.348;9.648;2022-12-17T21:39:11;74.37;;;28.50;;
18072;SDS011;9161;47.348;9.648;2022-12-17T21:43:57;69.87;;;26.77;;
18072;SDS011;9161;47.348;9.648;2022-12-17T21:48:42;74.37;;;28.37;;
18072;SDS011;9161;47.348;9.648;2022-12-17T21:53:28;65.53;;;25.63;;
18072;SDS011;9161;47.348;9.648;2022-12-17T21:58:13;71.33;;;27.57;;
18072;SDS011;9161;47.348;9.648;2022-12-17T22:02:57;68.80;;;26.33;;
18072;SDS011;9161;47.348;9.648;2022-12-17T22:07:40;92.13;;;33.43;;
18072;SDS011;9161;47.348;9.648;2022-12-17T22:12:27;81.20;;;31.57;;
18072;SDS011;9161;47.348;9.648;2022-12-17T22:17:28;80.77;;;32.70;;
18072;SDS011;9161;47.348;9.648;2022-12-17T22:22:12;82.87;;;32.23;;
18072;SDS011;9161;47.348;9.648;2022-12-17T22:26:55;82.90;;;32.40;;
18072;SDS011;9161;47.348;9.648;2022-12-17T22:31:42;84.53;;;30.93;;
18072;SDS011;9161;47.348;9.648;2022-12-17T22:36:44;75.33;;;30.30;;
18072;SDS011;9161;47.348;9.648;2022-12-17T22:41:49;86.90;;;32.53;;
18072;SDS011;9161;47.348;9.648;2022-12-17T22:47:12;69.83;;;28.13;;
18072;SDS011;9161;47.348;9.648;2022-12-17T22:51:56;66.93;;;26.30;;
18072;SDS011;9161;47.348;9.648;2022-12-17T22:56:40;67.07;;;25.57;;
18072;SDS011;9161;47.348;9.648;2022-12-17T23:06:43;58.13;;;22.30;;
18072;SDS011;9161;47.348;9.648;2022-12-17T23:11:28;64.23;;;24.50;;
18072;SDS011;9161;47.348;9.648;2022-12-17T23:16:12;57.30;;;23.67;;
18072;SDS011;9161;47.348;9.648;2022-12-17T23:21:03;56.13;;;22.03;;
18072;SDS011;9161;47.348;9.648;2022-12-17T23:25:49;56.40;;;21.87;;
18072;SDS011;9161;47.348;9.648;2022-12-17T23:30:34;47.40;;;19.57;;
18072;SDS011;9161;47.348;9.648;2022-12-17T23:35:18;55.10;;;19.37;;
18072;SDS011;9161;47.348;9.648;2022-12-17T23:40:02;42.07;;;17.87;;
18072;SDS011;9161;47.348;9.648;2022-12-17T23:44:48;45.70;;;19.03;;
18072;SDS011;9161;47.348;9.648;2022-12-17T23:49:32;46.93;;;17.20;;
18072;SDS011;9161;47.348;9.648;2022-12-17T23:54:15;47.20;;;18.37;;
18072;SDS011;9161;47.348;9.648;2022-12-17T23:59:00;49.20;;;18.57;;
